Wind from: 23-09-2018 23:00 until: 24-09-2018 22:59 warning for: Wind level: Yellow info button

Nearby METAR Reports

 

ENZV - Stavanger
Actualización: 23/09/2018 18:20
Light rain, showers, partly cloudy
Light rain, showers, partly cloudy
 Viento del NNO
Viento: NNO 26 km/h
Temperatura: 10°C
Wind Chill: 7°C
Rocío: 4°C
Humedad: 67%
Barómetro: 1011 hPa
Resumen: Light rain, showers
Clouds: Parcialmente nuboso
Visibility: 10 km
2018/09/23 16:20 ENZV 231620Z 33014KT 9999 -SHRA FEW020CB SCT030 10/04 Q1011 TEMPO 4000 SHRAGS BKN014CB
ENBR - Bergen
Actualización: 23/09/2018 18:20
Nearby showers, partly cloudy
Nearby showers, partly cloudy
 Viento del N
Viento: N 22 km/h
Temperatura: 7°C
Wind Chill: 4°C
Rocío: 4°C
Humedad: 81%
Barómetro: 1011 hPa
Resumen: Nearby showers
Clouds: Parcialmente nuboso
Visibility: 10 km
2018/09/23 16:20 ENBR 231620Z 35012KT 9999 VCSH FEW015 SCT020CB SCT030 07/04 Q1011 RESHRA TEMPO 32015G25KT 4000 SHRA BKN014CB RMK WIND 1200FT 34019KT
 
ENHD - Haugesund
Actualización: 23/09/2018 18:20
Nearby showers, partly cloudy
Nearby showers, partly cloudy
 Viento del ONO
Viento: ONO 35 km/h
Temperatura: 10°C
Wind Chill: 6°C
Rocío: 2°C
Humedad: 58%
Barómetro: 1011 hPa
Resumen: Nearby showers
Clouds: Parcialmente nuboso
Visibility: 10 km
2018/09/23 16:20 ENHD 231620Z 29019KT 9999 VCSH FEW025CB SCT036 10/02 Q1011
ENCN - Kristiansand
Actualización: 23/09/2018 18:20
Despejado
Despejado
 Viento del NO
Viento: NO 19 km/h, Racha: 39 km/h
Temperatura: 13°C
Rocío: 0°C
Humedad: 41%
Barómetro: 1007 hPa
Resumen: Despejado
Visibility: greater than 10 km
2018/09/23 16:20 ENCN 231620Z 31010G21KT 280V350 CAVOK 13/00 Q1007
 
ENBO - Bodø
Actualización: 23/09/2018 18:20
Nearby showers, mostly cloudy
Nearby showers, mostly cloudy
 Viento del O
Viento: O 56 km/h
Temperatura: 8°C
Wind Chill: 2°C
Rocío: 4°C
Humedad: 76%
Barómetro: 987 hPa
Resumen: Nearby showers
Clouds: Muy nuboso
Visibility: 10 km
2018/09/23 16:20 ENBO 231620Z 28030KT 9999 VCSH FEW015 SCT025 BKN035 08/04 Q0987 TEMPO 28030G40KT SHRA SCT008 BKN020CB
ENKR - Kirkenes
Actualización: 23/09/2018 18:20
Parcialmente nuboso
Parcialmente nuboso
 Viento del S
Viento: S 20 km/h
Temperatura: 9°C
Wind Chill: 6°C
Rocío: 4°C
Humedad: 71%
Barómetro: 980 hPa
Clouds: Parcialmente nuboso
Visibility: 10 km
2018/09/23 16:20 ENKR 231620Z 18011KT 9999 SCT042 09/04 Q0980 RMK WIND 731FT 18018KT
 
ENVA - Trondheim
Actualización: 23/09/2018 18:20
Rain showers, small hail, mostly cloudy
Rain showers, small hail, mostly cloudy
 Viento del O
Viento: O 39 km/h
Temperatura: 6°C
Wind Chill: 1°C
Rocío: 3°C
Humedad: 81%
Barómetro: 1002 hPa
Resumen: Rain showers, small hail
Clouds: Muy nuboso
Visibility: 10 km
2018/09/23 16:20 ENVA 231620Z 26021KT 9999 SHRAGS FEW019CB SCT024 BKN033 06/03 Q1002 RMK WIND 670FT 27023KT
ENGM - Oslo
Actualización: 23/09/2018 18:20
Nearby showers, partly cloudy
Nearby showers, partly cloudy
 Viento del NO
Viento: NO 7 km/h
Temperatura: 9°C
Wind Chill: 8°C
Rocío: 2°C
Humedad: 62%
Barómetro: 1003 hPa
Resumen: Nearby showers
Clouds: Parcialmente nuboso
Visibility: 10 km
2018/09/23 16:20 ENGM 231620Z 32004KT 280V010 9999 VCSH FEW030TCU SCT055 SCT070 09/02 Q1003 NOSIG